Archival Weather

Sharurah

Sharurah, Saudi Arabia (OESH)

Report from: Tuesday, September 19, 2023 8:00 AM +03
Current time: Monday, June 17, 2024 1:16 PM +03

Current weather – Weather history – Daily summaries
Weather forecast

Temperature35.0°C (95.0°F)
Heat index32.7°C (90.9°F)
Dew point6.0°C (42.8°F)
Winds 7 kts (3.6 m/s, 8.1 mph) East-Southeast (120°)
Visibility6.2 mi. (10 km)
Clouds Scattered clouds 4,000 ft. (1,219 m)
Altimeter29.83 in.Hg (1010 mB)
Relative humidity17 %
Density altitude2,517 ft. (767 m)
Remarks No significant changes expected in the next two hours
Flight conditions Visual Meteorological Conditions
Raw dataOESH 190500Z 12007KT 9999 SCT040 35/06 Q1010 NOSIG
An error has occurred. This application may no longer respond until reloaded. Reload 🗙